Time;durP1;ratioP1;P1;durP2;ratioP2;P2;SDS_P1;SDS_P2;PMS_P1;PMS_P2;Temp;Humidity;BMP_temperature;BMP_pressure;BME280_temperature;BME280_humidity;BME280_pressure;Samples;Min_cycle;Max_cycle;Signal;HPM_P1;HPM_P2
2021/12/07 00:00:35;;;;;;;2.20;2.03;;;19.30;99.00;;;;;;5012158;28;20188;-81
2021/12/07 00:03:01;;;;;;;2.13;2.03;;;19.30;99.10;;;;;;5010454;28;20231;-80
2021/12/07 00:05:27;;;;;;;2.30;2.10;;;19.20;99.00;;;;;;5011835;28;20185;-81
2021/12/07 00:07:53;;;;;;;2.03;1.93;;;19.20;99.00;;;;;;5010921;28;20183;-82
2021/12/07 00:10:19;;;;;;;2.20;2.00;;;19.20;99.10;;;;;;5011805;28;20183;-80
2021/12/07 00:12:46;;;;;;;2.30;2.10;;;19.20;99.10;;;;;;5012415;28;20227;-81
2021/12/07 00:15:16;;;;;;;2.47;2.27;;;19.20;99.10;;;;;;5011249;28;20705;-80
2021/12/07 00:17:42;;;;;;;1.93;1.83;;;19.20;99.10;;;;;;5011868;28;20208;-81
2021/12/07 00:20:12;;;;;;;2.43;2.23;;;19.20;99.10;;;;;;5011551;28;20653;-83
2021/12/07 00:22:38;;;;;;;2.30;2.10;;;19.20;99.20;;;;;;5011898;28;20181;-81
2021/12/07 00:25:06;;;;;;;2.27;2.07;;;19.10;99.20;;;;;;5011576;28;20172;-81
2021/12/07 00:27:32;;;;;;;2.50;2.30;;;19.10;99.20;;;;;;5011557;28;20227;-81
2021/12/07 00:29:57;;;;;;;2.50;2.30;;;19.10;99.20;;;;;;5015266;28;20562;-84
2021/12/07 00:32:29;;;;;;;2.60;2.40;;;19.10;99.20;;;;;;4997636;28;20176;-83
2021/12/07 00:35:18;;;;;;;2.43;2.23;;;19.10;99.20;;;;;;4997545;28;20177;-81
2021/12/07 00:37:48;;;;;;;2.43;2.23;;;19.10;99.20;;;;;;5015237;28;20613;-81
2021/12/07 00:40:17;;;;;;;2.40;2.20;;;19.10;99.30;;;;;;5015295;28;20176;-81
2021/12/07 00:42:43;;;;;;;2.57;2.37;;;19.10;99.20;;;;;;5014749;28;20646;-79
2021/12/07 00:45:09;;;;;;;2.30;2.00;;;19.10;99.20;;;;;;5014968;28;20234;-81
2021/12/07 00:47:35;;;;;;;2.40;2.20;;;19.00;99.20;;;;;;5015389;28;20172;-81
2021/12/07 00:50:01;;;;;;;2.30;2.20;;;19.10;99.20;;;;;;5014267;28;20234;-83
2021/12/07 00:52:27;;;;;;;2.80;2.60;;;19.00;99.20;;;;;;5020720;28;20181;-83
2021/12/07 00:54:52;;;;;;;2.53;2.33;;;19.00;99.20;;;;;;5027998;28;20180;-80
2021/12/07 00:57:20;;;;;;;2.60;2.40;;;19.00;99.20;;;;;;5015902;28;20209;-81
2021/12/07 00:59:46;;;;;;;2.60;2.40;;;19.00;99.20;;;;;;5014354;28;20177;-80
2021/12/07 01:02:11;;;;;;;2.63;2.43;;;19.00;99.20;;;;;;4997028;28;20184;-81
2021/12/07 01:04:37;;;;;;;2.60;2.40;;;19.00;99.20;;;;;;4996794;28;20184;-80
2021/12/07 01:07:04;;;;;;;3.40;2.47;;;19.00;99.30;;;;;;5014456;28;20630;-80
2021/12/07 01:25:47;;;;;;;2.50;2.30;;;18.90;99.50;;;;;;5008233;28;20219;-81
2021/12/07 01:28:25;;;;;;;2.50;2.30;;;18.90;99.60;;;;;;5014463;28;20169;-81
2021/12/07 01:31:00;;;;;;;4.33;2.30;;;18.90;99.50;;;;;;4996812;28;20270;-80
2021/12/07 01:36:15;;;;;;;2.80;2.60;;;18.90;99.60;;;;;;5013804;28;20205;-80
2021/12/07 01:59:32;;;;;;;2.90;2.60;;;18.90;99.70;;;;;;4992144;28;20197;-80
2021/12/07 02:00:42;;;;;;;2.87;2.43;;;18.80;99.70;;;;;;4991173;28;20207;-82
2021/12/07 02:03:07;;;;;;;2.43;2.23;;;18.80;99.70;;;;;;4975328;28;20188;-82
2021/12/07 02:05:33;;;;;;;2.43;2.23;;;18.90;99.80;;;;;;4974737;28;20567;-79
2021/12/07 02:07:59;;;;;;;2.40;2.20;;;18.90;99.80;;;;;;4975382;28;20181;-80
2021/12/07 02:10:28;;;;;;;2.50;2.30;;;18.80;99.80;;;;;;4991609;28;20193;-80
2021/12/07 02:13:01;;;;;;;2.73;2.20;;;18.90;99.80;;;;;;4991341;28;20243;-80
2021/12/07 02:15:28;;;;;;;3.33;2.50;;;18.90;99.80;;;;;;4991319;28;20208;-81
2021/12/07 02:17:54;;;;;;;3.20;2.93;;;18.90;99.80;;;;;;4974756;28;20647;-80
2021/12/07 02:20:24;;;;;;;3.17;2.87;;;18.90;99.90;;;;;;4974897;28;20188;-84
2021/12/07 02:22:49;;;;;;;3.03;2.40;;;18.80;99.80;;;;;;4996940;28;20188;-80
2021/12/07 02:25:16;;;;;;;2.97;2.30;;;18.90;99.90;;;;;;5013218;28;20168;-82
2021/12/07 02:27:43;;;;;;;3.03;2.40;;;18.80;99.90;;;;;;5013111;28;20246;-81
2021/12/07 02:30:12;;;;;;;2.50;2.30;;;18.90;99.90;;;;;;5013792;28;20180;-82
2021/12/07 02:32:39;;;;;;;2.50;2.30;;;18.80;99.90;;;;;;5014023;28;20516;-80
2021/12/07 02:35:05;;;;;;;3.90;2.60;;;18.80;99.90;;;;;;5012330;28;20631;-80
2021/12/07 02:37:33;;;;;;;2.77;2.57;;;18.80;99.90;;;;;;4995495;28;20192;-78
2021/12/07 02:39:59;;;;;;;2.50;2.30;;;18.90;99.90;;;;;;5013054;28;20255;-80
2021/12/07 02:42:27;;;;;;;2.50;2.30;;;18.80;99.90;;;;;;4995414;28;20172;-81
2021/12/07 02:44:53;;;;;;;3.10;2.80;;;18.90;99.90;;;;;;5012720;28;20226;-83
2021/12/07 02:47:20;;;;;;;2.73;2.53;;;18.80;99.90;;;;;;4995257;28;20188;-80
2021/12/07 02:49:46;;;;;;;2.43;2.23;;;18.80;99.90;;;;;;4995215;28;20183;-82
2021/12/07 02:52:13;;;;;;;2.80;2.60;;;18.80;99.90;;;;;;5012472;28;20173;-80
2021/12/07 02:54:44;;;;;;;2.77;2.57;;;18.80;99.90;;;;;;4994896;28;20177;-83
2021/12/07 02:57:12;;;;;;;2.50;2.30;;;18.80;99.90;;;;;;4995074;28;20305;-82
2021/12/07 02:59:49;;;;;;;2.80;2.60;;;18.80;99.90;;;;;;5012721;28;20191;-79
2021/12/07 03:02:16;;;;;;;2.10;2.00;;;18.80;99.90;;;;;;4994659;28;20761;-80
2021/12/07 03:04:52;;;;;;;3.10;2.80;;;18.80;99.90;;;;;;5012550;28;20180;-80
2021/12/07 03:07:35;;;;;;;2.57;2.37;;;18.70;99.90;;;;;;5012573;28;20250;-80
2021/12/07 03:26:16;;;;;;;2.80;2.60;;;18.70;99.90;;;;;;5012528;28;20704;-78
2021/12/07 03:28:49;;;;;;;2.70;2.50;;;18.70;99.90;;;;;;5012161;28;20169;-79
2021/12/07 03:31:15;;;;;;;2.50;2.30;;;18.70;99.90;;;;;;5012492;28;20186;-79
2021/12/07 03:33:41;;;;;;;2.90;2.50;;;18.70;99.90;;;;;;5012094;28;20619;-83
2021/12/07 03:36:09;;;;;;;2.80;2.60;;;18.70;99.90;;;;;;4994526;28;20271;-79
2021/12/07 03:38:35;;;;;;;3.00;2.70;;;18.70;99.90;;;;;;5012493;28;20562;-79
2021/12/07 03:41:02;;;;;;;2.90;2.70;;;18.70;99.90;;;;;;4994588;28;20234;-80
2021/12/07 03:43:27;;;;;;;2.87;2.67;;;18.70;99.90;;;;;;4994790;28;20172;-79
2021/12/07 03:45:53;;;;;;;2.70;2.50;;;18.70;99.90;;;;;;5011748;28;20179;-80
2021/12/07 03:48:19;;;;;;;2.60;2.40;;;18.70;99.90;;;;;;5012580;28;20177;-79
2021/12/07 03:50:45;;;;;;;2.87;2.53;;;18.60;99.90;;;;;;4994721;28;20538;-80
2021/12/07 03:53:12;;;;;;;2.70;2.50;;;18.70;99.90;;;;;;5012500;28;20184;-80
2021/12/07 03:55:39;;;;;;;3.30;2.57;;;18.70;99.90;;;;;;5011958;28;20215;-79
2021/12/07 03:58:05;;;;;;;2.60;2.40;;;18.70;99.90;;;;;;5012792;28;20173;-79
2021/12/07 04:00:34;;;;;;;2.77;2.53;;;18.70;99.90;;;;;;4994383;28;20523;-80
2021/12/07 04:03:03;;;;;;;3.20;2.37;;;18.70;99.90;;;;;;4994912;28;20189;-79
2021/12/07 04:05:30;;;;;;;2.60;2.40;;;18.70;99.90;;;;;;5015662;28;20624;-83
2021/12/07 04:07:55;;;;;;;2.97;2.70;;;18.70;99.90;;;;;;4998190;28;20184;-79
2021/12/07 04:10:23;;;;;;;2.50;2.30;;;18.60;99.90;;;;;;4998239;28;20176;-79
2021/12/07 04:12:49;;;;;;;3.10;2.90;;;18.60;99.90;;;;;;4998301;28;20188;-79
2021/12/07 04:15:16;;;;;;;2.80;2.60;;;18.60;99.90;;;;;;4997729;28;20183;-83
2021/12/07 04:17:42;;;;;;;2.80;2.60;;;18.60;99.90;;;;;;5015487;28;20173;-82
2021/12/07 04:20:10;;;;;;;2.50;2.30;;;18.60;99.90;;;;;;5015667;28;20173;-78
2021/12/07 04:22:36;;;;;;;3.00;2.67;;;18.60;99.90;;;;;;5016137;28;20180;-81
2021/12/07 04:25:09;;;;;;;2.80;2.60;;;18.60;99.90;;;;;;4997687;28;20176;-80
2021/12/07 04:27:38;;;;;;;2.60;2.40;;;18.60;99.90;;;;;;5015585;28;20187;-81
2021/12/07 04:30:07;;;;;;;3.30;2.87;;;18.60;99.90;;;;;;4997768;28;20213;-79
2021/12/07 04:32:32;;;;;;;2.43;2.23;;;18.60;99.90;;;;;;4998287;28;20713;-80
2021/12/07 04:34:58;;;;;;;2.80;2.60;;;18.60;99.90;;;;;;4997249;28;20184;-81
2021/12/07 04:37:24;;;;;;;3.50;2.50;;;18.60;99.90;;;;;;5015215;28;20242;-79
2021/12/07 04:39:49;;;;;;;2.97;2.77;;;18.50;99.90;;;;;;4997474;28;20230;-80
2021/12/07 04:42:15;;;;;;;2.87;2.67;;;18.50;99.90;;;;;;5015087;28;20639;-79
2021/12/07 04:44:49;;;;;;;2.97;2.53;;;18.50;99.90;;;;;;4997493;28;20188;-79
2021/12/07 04:47:22;;;;;;;3.60;2.57;;;18.60;99.90;;;;;;5015185;28;20180;-79
2021/12/07 04:50:16;;;;;;;3.00;2.70;;;18.60;99.90;;;;;;5015098;28;20213;-80
2021/12/07 04:58:05;;;;;;;2.60;2.40;;;18.50;99.90;;;;;;5014870;28;20179;-81
2021/12/07 05:00:30;;;;;;;2.80;2.60;;;18.50;99.90;;;;;;5014770;28;20171;-83
2021/12/07 05:03:00;;;;;;;2.43;2.23;;;18.50;99.90;;;;;;5014603;28;20172;-81
2021/12/07 05:05:32;;;;;;;2.70;2.50;;;18.50;99.90;;;;;;5014950;28;20177;-80
2021/12/07 05:08:02;;;;;;;3.20;2.90;;;18.60;99.90;;;;;;4997003;28;20180;-79
2021/12/07 05:10:31;;;;;;;2.90;2.70;;;18.50;99.90;;;;;;5014768;28;20203;-84
2021/12/07 05:18:33;;;;;;;2.80;2.60;;;18.50;99.90;;;;;;5014553;28;20188;-81
2021/12/07 05:39:53;;;;;;;2.50;2.30;;;18.40;99.90;;;;;;5014417;28;20318;-82
2021/12/07 05:42:22;;;;;;;2.60;2.40;;;18.40;99.90;;;;;;5013967;28;20180;-81
2021/12/07 05:44:47;;;;;;;2.70;2.50;;;18.50;99.90;;;;;;5013639;28;20165;-82
2021/12/07 05:47:13;;;;;;;2.70;2.50;;;18.40;99.90;;;;;;5013619;28;20180;-80
2021/12/07 05:49:39;;;;;;;2.70;2.50;;;18.40;99.90;;;;;;5014011;28;20172;-80
2021/12/07 05:52:04;;;;;;;2.23;2.13;;;18.40;99.90;;;;;;5013620;28;20255;-80
2021/12/07 05:54:30;;;;;;;2.80;2.60;;;18.40;99.90;;;;;;5013891;28;20176;-81
2021/12/07 05:56:56;;;;;;;2.60;2.40;;;18.40;99.90;;;;;;5013328;28;20209;-81
2021/12/07 05:59:21;;;;;;;2.30;2.10;;;18.30;99.90;;;;;;5013433;28;20310;-79
2021/12/07 06:01:47;;;;;;;2.43;2.23;;;18.30;99.90;;;;;;5013496;28;20188;-82
2021/12/07 06:04:13;;;;;;;2.70;2.50;;;18.30;99.90;;;;;;5013517;28;20179;-79
2021/12/07 06:06:39;;;;;;;2.40;2.20;;;18.40;99.90;;;;;;5013425;28;20598;-82
2021/12/07 06:09:05;;;;;;;2.90;2.70;;;18.30;99.90;;;;;;5013577;28;20169;-79
2021/12/07 06:11:31;;;;;;;2.63;2.43;;;18.30;99.90;;;;;;5013744;28;20205;-81
2021/12/07 06:13:57;;;;;;;2.57;2.37;;;18.40;99.90;;;;;;4995598;28;20179;-81
2021/12/07 06:16:24;;;;;;;2.80;2.60;;;18.30;99.90;;;;;;5013481;28;20690;-82
2021/12/07 06:18:50;;;;;;;2.60;2.40;;;18.30;99.90;;;;;;5013300;28;20202;-82
2021/12/07 06:21:16;;;;;;;2.40;2.30;;;18.40;99.90;;;;;;5013618;28;20242;-81
2021/12/07 06:23:42;;;;;;;3.77;2.40;;;18.30;99.90;;;;;;5013609;28;20188;-80
2021/12/07 06:26:08;;;;;;;2.10;2.00;;;18.30;99.90;;;;;;4994690;28;20181;-80
2021/12/07 06:28:34;;;;;;;2.77;2.57;;;18.30;99.90;;;;;;4995688;28;20187;-84
2021/12/07 06:30:59;;;;;;;2.50;2.30;;;18.30;99.90;;;;;;5013204;28;20183;-81
2021/12/07 06:33:26;;;;;;;2.60;2.40;;;18.30;99.90;;;;;;5013324;28;20637;-80
2021/12/07 06:35:57;;;;;;;2.10;1.90;;;18.20;99.90;;;;;;5012863;28;20202;-80
2021/12/07 06:38:32;;;;;;;2.87;2.63;;;18.20;99.90;;;;;;4995593;28;20184;-82
2021/12/07 06:40:58;;;;;;;10.03;7.97;;;18.30;99.90;;;;;;4995733;28;20182;-87
2021/12/07 06:43:24;;;;;;;10.70;9.40;;;16.80;90.30;;;;;;5012189;28;20187;-88
2021/12/07 06:45:50;;;;;;;9.73;8.73;;;15.20;90.20;;;;;;5011244;28;20279;-89
2021/12/07 06:48:16;;;;;;;10.10;9.10;;;13.30;91.50;;;;;;5016145;28;20180;-88
2021/12/07 06:50:43;;;;;;;11.83;10.33;;;11.60;93.20;;;;;;5016119;28;20172;-89
2021/12/07 06:53:09;;;;;;;11.77;10.30;;;9.80;95.60;;;;;;5015717;28;20215;-87
2021/12/07 06:55:38;;;;;;;10.27;8.87;;;8.20;97.90;;;;;;5015271;28;20696;-87
2021/12/07 06:58:05;;;;;;;14.73;11.33;;;7.00;99.80;;;;;;5016092;28;20176;-90
2021/12/07 07:00:31;;;;;;;16.30;13.17;;;5.80;99.90;;;;;;5015832;28;20270;-90
2021/12/07 07:03:03;;;;;;;14.13;12.20;;;6.30;99.90;;;;;;5017895;28;20184;-90
2021/12/07 07:05:30;;;;;;;15.57;13.27;;;5.40;99.90;;;;;;5012477;28;20168;-89
2021/12/07 07:07:58;;;;;;;16.50;14.10;;;3.70;99.90;;;;;;5012768;28;20271;-90
2021/12/07 07:10:24;;;;;;;18.37;14.90;;;3.10;99.90;;;;;;5012441;28;20642;-90
2021/12/07 07:12:50;;;;;;;17.70;14.10;;;2.90;99.90;;;;;;5007613;28;20219;-89
2021/12/07 07:15:17;;;;;;;23.37;17.20;;;2.80;99.90;;;;;;4995865;28;20168;-90
2021/12/07 07:17:43;;;;;;;19.70;16.20;;;3.60;99.90;;;;;;4996126;28;20185;-90
2021/12/07 07:20:13;;;;;;;20.00;15.63;;;4.50;99.90;;;;;;4996380;28;20216;-89
2021/12/07 07:22:39;;;;;;;18.20;14.60;;;4.00;99.90;;;;;;4975656;28;20420;-92
2021/12/07 07:25:06;;;;;;;20.10;15.40;;;3.10;99.90;;;;;;4989889;28;20177;-89
2021/12/07 07:27:39;;;;;;;19.83;15.17;;;2.60;99.90;;;;;;5023109;28;20230;-89
2021/12/07 07:30:09;;;;;;;19.53;15.27;;;2.80;99.90;;;;;;4996002;28;20207;-89
2021/12/07 07:32:34;;;;;;;19.53;14.60;;;2.50;99.90;;;;;;4995750;28;20423;-89
2021/12/07 07:35:00;;;;;;;16.50;13.43;;;4.20;99.90;;;;;;4995724;28;20245;-90
2021/12/07 07:37:26;;;;;;;19.00;14.77;;;4.00;99.90;;;;;;4996880;28;20251;-90
2021/12/07 07:39:52;;;;;;;22.17;16.83;;;2.40;99.90;;;;;;4999645;28;20653;-89
2021/12/07 07:42:18;;;;;;;18.70;15.37;;;2.40;99.90;;;;;;4999523;28;20416;-89
2021/12/07 07:44:44;;;;;;;17.03;14.20;;;3.40;99.90;;;;;;4999477;28;20582;-89
2021/12/07 07:47:10;;;;;;;15.20;12.57;;;2.60;99.90;;;;;;4999460;28;20581;-89
2021/12/07 07:49:35;;;;;;;14.53;12.47;;;4.50;99.90;;;;;;4999235;28;20631;-89
2021/12/07 07:52:02;;;;;;;15.20;12.43;;;2.60;99.90;;;;;;4999313;28;20254;-90
2021/12/07 07:54:28;;;;;;;16.37;12.93;;;2.40;99.90;;;;;;4999132;28;20189;-90
2021/12/07 07:56:54;;;;;;;15.20;12.73;;;3.40;99.90;;;;;;5006836;28;20470;-90
2021/12/07 07:59:19;;;;;;;17.40;14.83;;;3.10;99.90;;;;;;4998747;28;20415;-90
2021/12/07 08:01:45;;;;;;;15.97;13.40;;;2.60;99.90;;;;;;5007283;28;20172;-90
2021/12/07 08:04:11;;;;;;;17.37;14.03;;;2.70;99.90;;;;;;4998841;28;20177;-90
2021/12/07 08:06:37;;;;;;;15.27;12.33;;;4.00;99.90;;;;;;5001730;28;20310;-89
2021/12/07 08:09:05;;;;;;;16.53;13.20;;;2.60;99.90;;;;;;4999625;28;20204;-89
2021/12/07 08:11:34;;;;;;;15.37;12.53;;;2.70;99.90;;;;;;4999130;28;20290;-89
2021/12/07 08:14:06;;;;;;;14.97;12.33;;;2.80;99.90;;;;;;4999131;28;20881;-89
2021/12/07 08:16:33;;;;;;;15.63;12.90;;;2.80;99.90;;;;;;4998691;28;20469;-89
2021/12/07 08:18:59;;;;;;;14.87;11.47;;;4.20;99.90;;;;;;4998937;28;20173;-89
2021/12/07 08:21:24;;;;;;;13.53;10.93;;;2.80;99.90;;;;;;4998933;28;20485;-89
2021/12/07 08:23:50;;;;;;;14.60;11.87;;;4.40;99.90;;;;;;4999199;28;20419;-89
2021/12/07 08:26:19;;;;;;;13.20;11.33;;;2.90;99.90;;;;;;4997445;28;20193;-88
2021/12/07 08:28:44;;;;;;;13.00;11.33;;;2.80;99.90;;;;;;4998327;28;20180;-89
2021/12/07 08:31:10;;;;;;;14.70;12.30;;;2.90;99.90;;;;;;4997875;28;20527;-89
2021/12/07 08:33:36;;;;;;;14.20;12.13;;;4.50;99.90;;;;;;5002096;28;20527;-89
2021/12/07 08:36:03;;;;;;;13.57;11.10;;;3.90;99.90;;;;;;5026923;28;20474;-89
2021/12/07 08:38:29;;;;;;;13.40;11.03;;;2.90;99.90;;;;;;5016844;28;20175;-89
2021/12/07 08:40:55;;;;;;;16.07;13.10;;;3.00;99.90;;;;;;5016616;28;20434;-90
2021/12/07 08:43:24;;;;;;;11.37;10.17;;;3.10;99.90;;;;;;5014217;28;20709;-89
2021/12/07 08:45:50;;;;;;;11.73;10.50;;;3.80;99.90;;;;;;5010800;28;20435;-89
2021/12/07 08:48:17;;;;;;;12.43;10.83;;;3.00;99.90;;;;;;4998146;28;20470;-90
2021/12/07 08:50:44;;;;;;;12.77;10.33;;;3.00;99.90;;;;;;4997638;28;20905;-89
2021/12/07 08:53:16;;;;;;;11.97;10.33;;;3.60;99.90;;;;;;4989490;28;20449;-89
2021/12/07 09:01:18;;;;;;;12.43;10.80;;;2.70;99.90;;;;;;5015639;28;20188;-89
2021/12/07 09:03:45;;;;;;;14.17;11.60;;;4.50;99.90;;;;;;4997780;28;20184;-89
2021/12/07 09:06:17;;;;;;;12.67;10.27;;;3.40;99.90;;;;;;4997431;28;20180;-89
2021/12/07 09:08:50;;;;;;;12.53;11.20;;;3.10;99.90;;;;;;4996370;28;20434;-88
2021/12/07 09:11:16;;;;;;;11.50;10.30;;;3.00;99.90;;;;;;5009980;28;20427;-89
2021/12/07 09:13:43;;;;;;;14.33;11.80;;;1.00;99.90;;;;;;4994361;28;20551;-89
2021/12/07 09:16:10;;;;;;;11.90;10.63;;;4.40;99.90;;;;;;4977712;28;20464;-89
2021/12/07 09:18:37;;;;;;;14.67;10.37;;;2.80;99.90;;;;;;4977768;28;20547;-90
2021/12/07 09:21:04;;;;;;;9.93;8.93;;;2.90;99.90;;;;;;4977932;28;20421;-89
2021/12/07 09:23:30;;;;;;;10.67;9.37;;;2.90;99.90;;;;;;4978003;28;20185;-90
2021/12/07 09:25:55;;;;;;;11.30;9.73;;;4.80;99.90;;;;;;4980616;28;20188;-90
2021/12/07 09:28:22;;;;;;;11.47;9.80;;;2.60;99.90;;;;;;5014453;28;20267;-89
2021/12/07 09:30:51;;;;;;;10.57;9.37;;;3.40;99.90;;;;;;4996786;28;20172;-89
2021/12/07 09:33:22;;;;;;;9.23;8.27;;;4.40;99.90;;;;;;4996912;28;20921;-89
2021/12/07 09:35:47;;;;;;;11.30;9.20;;;2.80;99.90;;;;;;4998970;28;20290;-89
2021/12/07 09:38:24;;;;;;;10.77;9.10;;;2.90;99.90;;;;;;5009805;28;20280;-89
2021/12/07 09:41:09;;;;;;;10.53;8.80;;;2.90;99.90;;;;;;4992920;28;20315;-89
2021/12/07 09:43:36;;;;;;;10.90;8.90;;;3.00;99.90;;;;;;4995091;28;20419;-89
2021/12/07 09:46:03;;;;;;;10.93;9.70;;;5.30;99.90;;;;;;5004497;28;20242;-89
2021/12/07 09:48:29;;;;;;;11.07;9.43;;;3.10;99.90;;;;;;5004079;28;20181;-89
2021/12/07 09:50:55;;;;;;;11.23;9.50;;;3.90;99.90;;;;;;5011763;28;20593;-89
2021/12/07 09:53:24;;;;;;;10.20;8.03;;;4.00;99.90;;;;;;5004260;28;20266;-89
2021/12/07 09:55:51;;;;;;;8.97;7.87;;;5.30;99.90;;;;;;5003931;28;20490;-89
2021/12/07 09:58:18;;;;;;;9.60;8.57;;;3.50;99.90;;;;;;4993697;28;20264;-88
2021/12/07 10:00:53;;;;;;;9.07;7.73;;;5.40;99.90;;;;;;5009055;28;20175;-89
2021/12/07 10:03:23;;;;;;;14.73;10.80;;;3.60;99.90;;;;;;5006074;28;20179;-89
2021/12/07 10:05:48;;;;;;;10.47;8.87;;;4.30;99.90;;;;;;4995318;28;20176;-89
2021/12/07 10:08:15;;;;;;;10.83;8.23;;;3.70;99.90;;;;;;4996710;28;20183;-89
2021/12/07 10:10:44;;;;;;;12.07;9.77;;;3.70;99.90;;;;;;4996380;28;20183;-89
2021/12/07 10:13:12;;;;;;;10.67;9.07;;;4.30;99.90;;;;;;4994275;28;20188;-89
2021/12/07 10:15:39;;;;;;;9.10;8.20;;;5.00;99.90;;;;;;5001988;28;20178;-90
2021/12/07 10:18:10;;;;;;;10.07;9.03;;;4.30;99.90;;;;;;5001167;28;20642;-89
2021/12/07 10:20:43;;;;;;;8.57;7.67;;;3.80;99.90;;;;;;5005552;28;20181;-89
2021/12/07 10:23:17;;;;;;;10.03;9.00;;;3.80;99.90;;;;;;5007829;28;20211;-90
2021/12/07 10:25:44;;;;;;;8.17;7.20;;;4.50;99.90;;;;;;4997209;28;20267;-90
2021/12/07 10:28:32;;;;;;;9.57;8.40;;;5.60;99.90;;;;;;4996699;28;20551;-89
2021/12/07 10:31:03;;;;;;;9.17;8.27;;;3.70;99.90;;;;;;4996589;28;20199;-89
2021/12/07 10:33:42;;;;;;;9.30;8.37;;;3.60;99.90;;;;;;5068598;28;20607;-53
2021/12/07 10:36:17;;;;;;;8.07;7.27;;;3.60;99.90;;;;;;5069732;28;20673;-54
2021/12/07 10:38:52;;;;;;;8.13;7.33;;;3.60;99.90;;;;;;5068893;28;20231;-56
2021/12/07 10:41:22;;;;;;;8.10;7.30;;;3.50;99.90;;;;;;5069527;28;20178;-54
2021/12/07 10:44:07;;;;;;;8.30;6.70;;;3.40;99.90;;;;;;5069150;28;20191;-50
2021/12/07 10:46:37;;;;;;;7.40;6.60;;;3.30;99.90;;;;;;5069461;28;20223;-54
2021/12/07 10:49:11;;;;;;;8.67;6.87;;;3.30;99.90;;;;;;5068911;28;20174;-52
2021/12/07 10:51:37;;;;;;;8.07;6.70;;;3.40;99.90;;;;;;5067981;28;20668;-49
2021/12/07 10:54:04;;;;;;;7.90;6.43;;;3.40;99.90;;;;;;5060401;28;20202;-54
2021/12/07 10:56:36;;;;;;;7.00;6.30;;;3.40;99.90;;;;;;5057261;28;20180;-55
2021/12/07 10:59:07;;;;;;;8.40;7.43;;;3.40;99.90;;;;;;5058849;28;20171;-55
2021/12/07 11:01:38;;;;;;;7.37;6.33;;;3.60;99.90;;;;;;5056800;28;20206;-52
2021/12/07 11:04:30;;;;;;;6.20;5.43;;;3.60;99.90;;;;;;5056837;28;20210;-54
2021/12/07 11:07:19;;;;;;;6.27;5.67;;;3.40;99.90;;;;;;5058855;28;20202;-55
2021/12/07 11:10:15;;;;;;;7.20;6.50;;;3.20;99.90;;;;;;5057815;28;20186;-50
2021/12/07 11:13:05;;;;;;;7.53;5.93;;;3.20;99.90;;;;;;5063213;28;20211;-53
2021/12/07 11:15:33;;;;;;;6.90;6.03;;;3.10;99.90;;;;;;5066778;28;20171;-50
2021/12/07 11:18:03;;;;;;;7.27;5.63;;;3.00;99.90;;;;;;5052596;28;20171;-50
2021/12/07 11:20:30;;;;;;;6.90;6.03;;;3.00;99.90;;;;;;5064677;28;20225;-52
2021/12/07 11:23:06;;;;;;;6.43;5.70;;;2.90;99.90;;;;;;5067906;28;20285;-50
2021/12/07 11:31:29;;;;;;;7.20;5.93;;;3.10;99.90;;;;;;5068056;28;20184;-51
2021/12/07 11:34:23;;;;;;;6.73;5.70;;;3.00;99.90;;;;;;5065176;28;20178;-50
2021/12/07 11:36:56;;;;;;;7.77;6.07;;;2.80;99.90;;;;;;5058231;28;20225;-50
2021/12/07 11:39:25;;;;;;;7.63;6.33;;;2.70;99.90;;;;;;5062472;28;20179;-53
2021/12/07 11:42:15;;;;;;;6.87;5.83;;;2.70;99.90;;;;;;5050963;28;20235;-51
2021/12/07 11:44:50;;;;;;;6.43;5.07;;;2.70;99.90;;;;;;5046304;28;20192;-50
2021/12/07 11:47:15;;;;;;;7.70;6.00;;;2.80;99.90;;;;;;5038103;28;20667;-53
2021/12/07 11:49:41;;;;;;;8.20;6.00;;;2.90;99.90;;;;;;5036122;28;20179;-51
2021/12/07 11:52:08;;;;;;;6.30;5.70;;;2.90;99.90;;;;;;5034321;28;20203;-50
2021/12/07 11:54:39;;;;;;;8.10;5.80;;;2.90;99.90;;;;;;5037067;28;20171;-49
2021/12/07 11:57:08;;;;;;;7.07;5.37;;;2.80;99.90;;;;;;5033274;28;20178;-50
2021/12/07 11:59:34;;;;;;;5.53;5.00;;;2.80;99.90;;;;;;5034842;28;20175;-51
2021/12/07 12:02:00;;;;;;;5.83;4.87;;;2.90;99.90;;;;;;5036876;28;20563;-50
2021/12/07 12:04:26;;;;;;;8.00;5.17;;;3.00;99.90;;;;;;5038387;28;20176;-53
2021/12/07 12:06:53;;;;;;;7.07;5.27;;;3.00;99.90;;;;;;5036096;28;20699;-49
2021/12/07 12:09:22;;;;;;;5.03;4.53;;;3.10;99.90;;;;;;5034223;28;20176;-50
2021/12/07 12:12:13;;;;;;;4.90;4.40;;;3.00;99.90;;;;;;5034232;28;20203;-57
2021/12/07 12:15:02;;;;;;;6.40;5.30;;;3.00;99.90;;;;;;5033531;28;20171;-52
2021/12/07 12:17:45;;;;;;;5.70;4.90;;;3.00;99.90;;;;;;5040148;28;20171;-55
2021/12/07 12:20:24;;;;;;;7.90;4.70;;;3.10;99.90;;;;;;5036806;28;20237;-51
2021/12/07 12:23:38;;;;;;;10.40;5.43;;;3.10;99.90;;;;;;5034382;28;20192;-53
2021/12/07 12:26:07;;;;;;;6.50;5.27;;;3.10;99.90;;;;;;5034261;28;20220;-50
2021/12/07 12:28:36;;;;;;;8.67;5.47;;;3.20;99.90;;;;;;5033927;28;20172;-50
2021/12/07 12:31:02;;;;;;;6.17;5.17;;;3.30;99.90;;;;;;5033449;28;20168;-50
2021/12/07 12:33:45;;;;;;;6.70;4.70;;;3.30;99.90;;;;;;5033489;28;20588;-54
2021/12/07 12:36:11;;;;;;;5.97;5.13;;;3.30;99.90;;;;;;5033501;28;20259;-54
2021/12/07 12:38:37;;;;;;;9.63;5.67;;;3.20;99.90;;;;;;5033496;28;20617;-50
2021/12/07 12:41:06;;;;;;;4.90;4.40;;;3.30;99.90;;;;;;5033246;28;20176;-54
2021/12/07 12:43:43;;;;;;;5.30;4.50;;;5.10;99.90;;;;;;5033383;28;20168;-52
2021/12/07 12:46:11;;;;;;;5.50;4.90;;;3.40;99.90;;;;;;5032936;28;20183;-56
2021/12/07 12:48:37;;;;;;;7.30;4.97;;;3.40;99.90;;;;;;5033347;28;20175;-50
2021/12/07 12:51:04;;;;;;;6.47;4.90;;;3.50;99.90;;;;;;5033293;28;20223;-58
2021/12/07 12:53:34;;;;;;;5.67;4.77;;;3.50;99.90;;;;;;5032893;28;20306;-50
2021/12/07 12:56:05;;;;;;;5.93;4.47;;;3.40;99.90;;;;;;5032228;28;20254;-55
2021/12/07 12:58:33;;;;;;;5.73;4.37;;;3.50;99.90;;;;;;5032981;28;20176;-55
2021/12/07 13:01:11;;;;;;;5.97;4.57;;;3.70;99.90;;;;;;5033059;28;20636;-52
2021/12/07 13:03:44;;;;;;;7.10;4.53;;;3.80;99.90;;;;;;5033053;28;20518;-51
2021/12/07 13:06:31;;;;;;;6.57;4.10;;;3.80;99.90;;;;;;5033435;28;20172;-52
2021/12/07 13:09:05;;;;;;;5.57;4.17;;;3.80;99.90;;;;;;5029092;28;20191;-52
2021/12/07 13:11:43;;;;;;;5.07;4.00;;;3.80;99.90;;;;;;5032937;28;20188;-56
2021/12/07 13:14:29;;;;;;;6.03;4.10;;;3.70;99.90;;;;;;5033078;28;20311;-55
2021/12/07 13:17:03;;;;;;;4.80;4.30;;;3.60;99.90;;;;;;5032893;28;20178;-52
2021/12/07 13:19:31;;;;;;;5.03;4.27;;;3.60;99.90;;;;;;5032712;28;20242;-55
2021/12/07 13:22:03;;;;;;;7.43;4.33;;;3.60;99.90;;;;;;5032930;28;20200;-56
2021/12/07 13:24:34;;;;;;;5.77;4.40;;;3.60;99.90;;;;;;5033176;28;20548;-49
2021/12/07 13:27:01;;;;;;;5.97;4.40;;;3.60;99.90;;;;;;5048711;28;20194;-56
2021/12/07 13:29:27;;;;;;;9.13;5.00;;;3.60;99.90;;;;;;5043073;28;20525;-53
2021/12/07 13:32:02;;;;;;;5.17;4.27;;;3.60;99.90;;;;;;5047802;28;20219;-54
2021/12/07 13:34:30;;;;;;;4.90;3.93;;;3.50;99.90;;;;;;5052092;28;20217;-55
2021/12/07 13:37:05;;;;;;;6.13;4.53;;;3.50;99.90;;;;;;5042283;28;20217;-56
2021/12/07 13:39:56;;;;;;;4.67;4.07;;;3.40;99.90;;;;;;5051478;28;20178;-53
2021/12/07 13:42:25;;;;;;;5.83;4.63;;;3.30;99.90;;;;;;5052167;28;20237;-54
2021/12/07 13:45:05;;;;;;;6.23;4.37;;;3.40;99.90;;;;;;5048667;28;20184;-53
2021/12/07 13:47:34;;;;;;;6.53;4.17;;;3.40;99.90;;;;;;5042215;28;20172;-57
2021/12/07 13:50:15;;;;;;;6.27;4.73;;;3.40;99.90;;;;;;5034510;28;20572;-56
2021/12/07 13:52:46;;;;;;;5.60;4.50;;;3.50;99.90;;;;;;5032366;28;20196;-57
2021/12/07 13:55:18;;;;;;;5.47;4.63;;;3.60;99.90;;;;;;5032703;28;20542;-49
2021/12/07 13:57:51;;;;;;;6.67;4.47;;;3.60;99.90;;;;;;5050332;28;20517;-55
2021/12/07 14:00:26;;;;;;;6.60;5.13;;;3.80;99.90;;;;;;5053159;28;20195;-56
2021/12/07 14:02:55;;;;;;;5.13;4.33;;;3.90;99.90;;;;;;5052454;28;20186;-53
2021/12/07 14:05:28;;;;;;;6.87;4.90;;;4.00;99.90;;;;;;5052707;28;20178;-56
2021/12/07 14:07:55;;;;;;;5.53;4.50;;;4.60;99.90;;;;;;5053240;28;20198;-55
2021/12/07 14:10:22;;;;;;;4.40;4.00;;;4.20;99.90;;;;;;5053183;28;20198;-55
2021/12/07 14:12:49;;;;;;;6.30;5.20;;;4.30;99.90;;;;;;5054659;28;20195;-55
2021/12/07 14:15:23;;;;;;;5.40;4.57;;;4.40;99.90;;;;;;5053185;28;20636;-54
2021/12/07 14:17:53;;;;;;;7.30;4.60;;;4.40;99.90;;;;;;5054351;28;20202;-55
2021/12/07 14:20:33;;;;;;;7.30;4.33;;;4.50;99.90;;;;;;5054644;28;20195;-54
2021/12/07 14:22:59;;;;;;;4.77;4.07;;;4.50;99.90;;;;;;5039699;28;20692;-55
2021/12/07 14:25:25;;;;;;;5.37;4.20;;;4.30;99.90;;;;;;5043619;28;20179;-56
2021/12/07 14:27:51;;;;;;;6.03;4.13;;;4.10;99.90;;;;;;5035685;28;20180;-56
2021/12/07 14:30:17;;;;;;;6.30;4.13;;;3.90;99.90;;;;;;5034070;28;20283;-57
2021/12/07 14:32:44;;;;;;;7.80;4.30;;;3.80;99.90;;;;;;5032586;28;20225;-53
2021/12/07 14:35:10;;;;;;;5.13;4.30;;;3.80;99.90;;;;;;5032588;28;20187;-56